King Salmon Airport
PAKN : rendu visible

Aérodrome :











RETROUVEZ-NOUS SUR...

 
LOGIN :

S'inscrire | Disclaimer

   EN    FR    IT 

 









Légende :    VFR   VFR Marginal   IFR   IFR Intensif   IFR Très Intensif
Visi : 
Plafond : 
>= 8 km
>= 3000ft
5 à 8 km
1000 à 3000 ft
1500m à 5 km
500 à 1000 ft
800 à 1500m
200 à 500 ft
< 800m
< 200 ft
Symboles :   Orages  Brouillard  Fortes neiges  Fortes précipitations  Vent > 20 kt






- Altitude de l'aérodrome : 73 ft
- Code IATA : AKN


PAKN - King Salmon

DERNIER METAR :
  • 022354Z 07011G19KT 10SM FEW055 18/03 A2952 RMK AO2 SLP996 T01780028 10183 20133 53005 $

METARs EXPIRÉS :
  • 022254Z 07010G18KT 9SM BKN055 BKN070 BKN080 17/02 A2951 RMK AO2 SLP992 T01670022 $
  • 022154Z 05012G20KT 9SM BKN090 18/03 A2950 RMK AO2 SLP990 T01780028 $

TAF PAKN
Valide du 03 à 00h jusqu'au 04 à 00h UTC


022333Z 0300/0324 07010G18KT P6SM BKN060 BKN070 BKN080
FM030500 07010KT P6SM BKN080
FIR PAZA / Amérique du Nord



MET'MAP, la Météo Aéronautique d'un coup d'oeil ! - Copyright ORBIFLY Décembre 2007 - Disclaimer

ORBIFLY MET'MAP TEAM :

Programmation & Développement : Alexandra Zaïnal
Sur une idée originale de : Baudouin d'Aumeries
Assistance à la programmation : Marc-Olivier Méhu
Soutien technique & logistique : Manuel Goepfert

Contact : metmap@orbifly.com




SOURCES & CREDITS :

   NOAA       Earth
Advisory